createdAt,value
2022-08-24T00:01:22.900Z,24.70
2022-08-24T00:03:55.530Z,24.60
2022-08-24T00:06:26.889Z,24.40
2022-08-24T00:08:56.670Z,24.50
2022-08-24T00:11:25.012Z,24.30
2022-08-24T00:13:54.303Z,24.10
2022-08-24T00:16:23.178Z,23.70
2022-08-24T00:18:52.948Z,23.90
2022-08-24T00:21:21.186Z,24.20
2022-08-24T00:23:50.079Z,24.50
2022-08-24T00:26:19.646Z,24.30
2022-08-24T00:28:57.859Z,24.40
2022-08-24T00:31:26.387Z,24.30
2022-08-24T00:33:56.501Z,24.30
2022-08-24T00:36:25.513Z,24.20
2022-08-24T00:38:55.008Z,24.20
2022-08-24T00:41:24.022Z,24.30
2022-08-24T00:43:54.667Z,24.20
2022-08-24T00:46:27.779Z,24.50
2022-08-24T00:49:03.904Z,24.60
2022-08-24T00:51:37.722Z,24.10
2022-08-24T00:54:09.749Z,24.10
2022-08-24T00:56:44.760Z,24.10
2022-08-24T00:59:17.599Z,24.00
2022-08-24T01:01:47.539Z,24.00
2022-08-24T01:04:23.400Z,24.10
2022-08-24T01:06:51.666Z,24.10
2022-08-24T01:09:19.923Z,24.10
2022-08-24T01:11:48.405Z,24.00
2022-08-24T01:14:17.700Z,24.20
2022-08-24T01:17:03.616Z,24.40
2022-08-24T01:19:38.477Z,24.30
2022-08-24T01:22:38.506Z,24.10
2022-08-24T01:25:09.642Z,23.90
2022-08-24T01:27:39.237Z,23.70
2022-08-24T01:30:12.479Z,23.50
2022-08-24T01:32:42.802Z,23.30
2022-08-24T01:35:11.364Z,23.10
2022-08-24T01:37:40.257Z,23.20
2022-08-24T01:40:11.131Z,23.60
2022-08-24T01:42:40.189Z,23.40
2022-08-24T01:45:10.466Z,23.60
2022-08-24T01:47:38.823Z,23.90
2022-08-24T01:50:08.296Z,23.80
2022-08-24T01:53:03.494Z,23.60
2022-08-24T01:55:26.840Z,23.80
2022-08-24T01:57:55.235Z,23.90
2022-08-24T02:00:26.429Z,23.70
2022-08-24T02:02:57.152Z,23.50
2022-08-24T02:05:26.412Z,23.50
2022-08-24T02:07:54.830Z,23.60
2022-08-24T02:10:23.566Z,23.60
2022-08-24T02:12:59.060Z,23.70
2022-08-24T02:15:32.706Z,23.80
2022-08-24T02:18:01.930Z,23.50
2022-08-24T02:20:30.610Z,23.70
2022-08-24T02:22:59.270Z,23.60
2022-08-24T02:25:30.624Z,23.60
2022-08-24T02:28:00.796Z,23.60
2022-08-24T02:30:30.098Z,23.50
2022-08-24T02:32:59.251Z,23.40
2022-08-24T02:35:29.597Z,23.30
2022-08-24T02:37:59.001Z,23.30
2022-08-24T02:40:27.624Z,23.10
2022-08-24T02:42:56.194Z,23.00
2022-08-24T02:45:26.020Z,22.70
2022-08-24T02:47:54.647Z,22.30
2022-08-24T02:50:23.140Z,22.10
2022-08-24T02:52:51.567Z,22.20
2022-08-24T02:55:20.651Z,22.30
2022-08-24T02:57:50.611Z,22.10
2022-08-24T03:00:21.975Z,22.00
2022-08-24T03:02:51.863Z,22.00
2022-08-24T03:05:20.422Z,21.80
2022-08-24T03:07:48.740Z,21.50
2022-08-24T03:10:17.248Z,21.80
2022-08-24T03:12:45.844Z,21.60
2022-08-24T03:15:15.197Z,21.70
2022-08-24T03:17:44.104Z,21.60
2022-08-24T03:20:16.683Z,21.80
2022-08-24T03:22:46.343Z,21.80
2022-08-24T03:25:17.492Z,21.70
2022-08-24T03:27:45.916Z,21.50
2022-08-24T03:30:16.624Z,21.30
2022-08-24T03:32:45.284Z,21.50
2022-08-24T03:35:17.017Z,21.50
2022-08-24T03:37:45.356Z,21.60
2022-08-24T03:40:22.875Z,21.80
2022-08-24T03:42:53.503Z,21.80
2022-08-24T03:45:23.017Z,21.60
2022-08-24T03:47:51.852Z,21.40
2022-08-24T03:50:22.949Z,21.60
2022-08-24T03:52:51.576Z,21.50
2022-08-24T03:55:20.237Z,21.30
2022-08-24T03:57:48.652Z,21.50
2022-08-24T04:00:18.120Z,21.40
2022-08-24T04:02:46.579Z,21.40
2022-08-24T04:05:14.935Z,21.40
2022-08-24T04:07:44.691Z,21.50
2022-08-24T04:10:14.129Z,21.40
2022-08-24T04:12:42.451Z,21.20
2022-08-24T04:15:12.551Z,21.50
2022-08-24T04:17:40.910Z,21.20
2022-08-24T04:20:10.379Z,21.30
2022-08-24T04:22:38.835Z,21.40
2022-08-24T04:25:10.140Z,21.40
2022-08-24T04:27:39.261Z,21.60
2022-08-24T04:30:08.702Z,21.70
2022-08-24T04:32:36.987Z,21.70
2022-08-24T04:35:06.640Z,21.70
2022-08-24T04:37:34.988Z,21.50
2022-08-24T04:40:03.509Z,21.30
2022-08-24T04:42:34.207Z,21.10
2022-08-24T04:45:03.020Z,21.30
2022-08-24T04:47:31.451Z,21.30
2022-08-24T04:50:00.355Z,21.50
2022-08-24T04:52:30.036Z,21.50
2022-08-24T04:54:58.437Z,21.20
2022-08-24T04:57:26.825Z,21.20
2022-08-24T04:59:59.292Z,21.20
2022-08-24T05:02:27.866Z,21.30
2022-08-24T05:04:58.894Z,21.60
2022-08-24T05:07:27.417Z,21.60
2022-08-24T05:09:56.581Z,21.70
2022-08-24T05:12:27.501Z,21.80
2022-08-24T05:14:57.280Z,21.70
2022-08-24T05:17:25.705Z,21.70
2022-08-24T05:19:54.189Z,21.40
2022-08-24T05:22:22.640Z,21.60
2022-08-24T05:24:51.063Z,21.30
2022-08-24T05:27:19.934Z,21.50
2022-08-24T05:29:54.675Z,21.70
2022-08-24T05:32:24.407Z,21.70
2022-08-24T05:34:52.708Z,21.80
2022-08-24T05:37:21.114Z,21.80
2022-08-24T05:39:49.727Z,21.90
2022-08-24T05:42:18.238Z,21.70
2022-08-24T05:44:46.536Z,21.80
2022-08-24T05:47:15.056Z,21.90
2022-08-24T05:49:45.594Z,21.90
2022-08-24T05:52:13.982Z,22.00
2022-08-24T05:54:43.004Z,22.20
2022-08-24T05:57:11.547Z,22.20
2022-08-24T05:59:40.581Z,22.40
2022-08-24T06:02:09.509Z,22.70
2022-08-24T06:04:38.351Z,22.50
2022-08-24T06:07:11.454Z,22.50
2022-08-24T06:09:40.161Z,22.40
2022-08-24T06:12:09.914Z,22.60
2022-08-24T06:14:38.409Z,22.80
2022-08-24T06:17:08.749Z,22.80
2022-08-24T06:19:37.683Z,22.80
2022-08-24T06:22:08.138Z,23.00
2022-08-24T06:24:55.299Z,23.10
2022-08-24T06:27:26.330Z,23.00
2022-08-24T06:29:57.135Z,23.30
2022-08-24T06:32:26.111Z,23.60
2022-08-24T06:34:57.969Z,23.50
2022-08-24T06:37:29.359Z,23.60
2022-08-24T06:40:00.596Z,23.80
2022-08-24T06:42:30.539Z,23.70
2022-08-24T06:44:58.915Z,23.80
2022-08-24T06:47:27.251Z,23.80
2022-08-24T06:49:55.525Z,23.90
2022-08-24T06:52:23.754Z,24.00
2022-08-24T06:54:53.582Z,24.20
2022-08-24T06:57:22.342Z,24.40
2022-08-24T06:59:50.642Z,24.40
2022-08-24T07:02:19.444Z,24.50
2022-08-24T07:04:48.159Z,24.30
2022-08-24T07:07:17.467Z,24.30
2022-08-24T07:09:45.845Z,24.60
2022-08-24T07:12:15.551Z,24.20
2022-08-24T07:14:43.945Z,24.20
2022-08-24T07:17:12.221Z,24.30
2022-08-24T07:19:40.572Z,24.40
2022-08-24T07:22:09.132Z,24.60
2022-08-24T07:24:38.065Z,24.80
2022-08-24T07:27:06.756Z,24.80
2022-08-24T07:29:48.812Z,24.90
2022-08-24T07:32:21.650Z,25.10
2022-08-24T07:34:50.704Z,25.00
2022-08-24T07:37:19.244Z,25.10
2022-08-24T07:39:47.935Z,25.20
2022-08-24T07:42:23.204Z,25.10
2022-08-24T07:44:56.806Z,25.10
2022-08-24T07:47:38.095Z,25.10
2022-08-24T07:50:08.220Z,25.40
2022-08-24T07:52:36.687Z,25.70
2022-08-24T07:55:05.715Z,26.00
2022-08-24T07:57:34.343Z,25.90
2022-08-24T08:00:07.036Z,26.00
2022-08-24T08:02:36.415Z,26.00
2022-08-24T08:05:05.785Z,26.10
2022-08-24T08:07:34.234Z,26.10
2022-08-24T08:10:03.284Z,26.10
2022-08-24T08:12:31.678Z,26.10
2022-08-24T08:15:00.051Z,26.30
2022-08-24T08:17:29.826Z,26.50
2022-08-24T08:19:58.246Z,26.70
2022-08-24T08:22:43.940Z,26.80
2022-08-24T08:25:12.406Z,26.80
2022-08-24T08:27:40.797Z,26.80
2022-08-24T08:30:10.556Z,27.00
2022-08-24T08:32:40.473Z,27.20
2022-08-24T08:35:09.461Z,27.20
2022-08-24T08:37:38.112Z,27.40
2022-08-24T08:40:09.414Z,27.50
2022-08-24T08:43:00.664Z,27.60
2022-08-24T08:45:46.308Z,27.60
2022-08-24T08:49:01.106Z,27.70
2022-08-24T08:51:56.797Z,27.70
2022-08-24T08:54:48.205Z,27.80
2022-08-24T08:57:35.515Z,27.70
2022-08-24T09:00:17.385Z,27.70
2022-08-24T09:03:17.468Z,27.80
2022-08-24T09:06:10.483Z,27.80
2022-08-24T09:08:54.293Z,27.70
2022-08-24T09:11:32.988Z,27.80
2022-08-24T09:14:38.734Z,27.70
2022-08-24T09:17:24.945Z,27.90
2022-08-24T09:20:07.688Z,27.90
2022-08-24T09:22:41.925Z,27.90
2022-08-24T09:25:26.420Z,28.00
2022-08-24T09:28:12.716Z,27.80
2022-08-24T09:31:11.141Z,27.80
2022-08-24T09:33:45.758Z,27.90
2022-08-24T09:36:26.152Z,28.00
2022-08-24T09:39:08.779Z,28.00
2022-08-24T09:42:09.671Z,28.20
2022-08-24T09:45:09.814Z,28.00
2022-08-24T09:48:15.987Z,28.10
2022-08-24T09:51:03.397Z,28.50
2022-08-24T09:54:00.284Z,28.40
2022-08-24T09:56:59.806Z,28.50
2022-08-24T10:00:03.968Z,28.30
2022-08-24T10:02:49.340Z,28.20
2022-08-24T10:05:28.052Z,28.10
2022-08-24T10:08:06.042Z,28.40
2022-08-24T10:10:42.829Z,28.40
2022-08-24T10:13:24.669Z,28.20
2022-08-24T10:16:18.491Z,28.30
2022-08-24T10:19:00.851Z,28.20
2022-08-24T10:21:47.843Z,28.10
2022-08-24T10:24:39.510Z,28.40
2022-08-24T10:27:23.547Z,28.40
2022-08-24T10:30:15.390Z,28.10
2022-08-24T10:33:05.760Z,28.20
2022-08-24T10:35:38.108Z,28.30
2022-08-24T10:38:45.617Z,28.10
2022-08-24T10:41:41.659Z,28.40
2022-08-24T10:44:29.627Z,28.80
2022-08-24T10:47:02.241Z,28.90
2022-08-24T10:50:03.256Z,29.10
2022-08-24T10:52:58.423Z,29.30
2022-08-24T10:55:31.133Z,29.10
2022-08-24T10:58:21.269Z,29.00
2022-08-24T11:00:50.213Z,28.70
2022-08-24T11:03:28.453Z,28.80
2022-08-24T11:05:58.800Z,29.10
2022-08-24T11:08:30.144Z,29.10
2022-08-24T11:11:08.787Z,29.10
2022-08-24T11:13:39.313Z,29.10
2022-08-24T11:16:08.245Z,29.20
2022-08-24T11:18:52.816Z,29.30
2022-08-24T11:21:34.879Z,29.60
2022-08-24T11:24:05.780Z,29.70
2022-08-24T11:26:57.792Z,29.90
2022-08-24T11:29:31.511Z,29.90
2022-08-24T11:32:00.700Z,29.80
2022-08-24T11:34:37.629Z,29.90
2022-08-24T11:37:11.910Z,29.90
2022-08-24T11:39:40.584Z,29.70
2022-08-24T11:42:16.927Z,29.70
2022-08-24T11:44:50.965Z,29.60
2022-08-24T11:47:49.660Z,29.80
2022-08-24T11:50:32.616Z,29.80
2022-08-24T11:53:12.924Z,30.00
2022-08-24T11:55:51.930Z,30.10
2022-08-24T11:58:39.604Z,30.10
2022-08-24T12:01:15.581Z,30.40
2022-08-24T12:03:59.328Z,30.40
2022-08-24T12:06:40.332Z,30.50
2022-08-24T12:09:22.276Z,30.40
2022-08-24T12:11:57.755Z,30.50
2022-08-24T12:14:33.853Z,30.50
2022-08-24T12:17:06.584Z,30.40
2022-08-24T12:19:38.736Z,30.00
2022-08-24T12:22:10.347Z,30.20
2022-08-24T12:24:42.481Z,30.30
2022-08-24T12:27:15.812Z,30.10
2022-08-24T12:29:46.662Z,29.90
2022-08-24T12:32:19.093Z,29.80
2022-08-24T12:34:55.860Z,29.90
2022-08-24T12:37:32.836Z,30.10
2022-08-24T12:40:08.798Z,30.00
2022-08-24T12:42:51.749Z,30.20
2022-08-24T12:45:22.561Z,30.40
2022-08-24T12:47:58.298Z,30.50
2022-08-24T12:50:31.980Z,30.60
2022-08-24T12:53:19.864Z,30.60
2022-08-24T12:56:27.008Z,30.40
2022-08-24T12:59:06.142Z,30.40
2022-08-24T13:01:37.779Z,30.60
2022-08-24T13:04:19.632Z,30.70
2022-08-24T13:06:55.232Z,30.80
2022-08-24T13:09:38.198Z,30.90
2022-08-24T13:12:54.663Z,31.10
2022-08-24T13:15:43.732Z,31.20
2022-08-24T13:18:50.863Z,31.40
2022-08-24T13:21:45.189Z,31.40
2022-08-24T13:24:52.596Z,31.30
2022-08-24T13:27:50.792Z,31.10
2022-08-24T13:30:52.461Z,31.10
2022-08-24T13:33:30.446Z,31.20
2022-08-24T13:36:06.791Z,31.30
2022-08-24T13:39:10.692Z,31.40
2022-08-24T13:41:55.261Z,31.40
2022-08-24T13:44:56.885Z,31.20
2022-08-24T13:47:30.339Z,31.10
2022-08-24T13:50:09.580Z,31.30
2022-08-24T13:52:52.768Z,31.30
2022-08-24T13:55:35.123Z,31.40
2022-08-24T13:58:17.983Z,31.10
2022-08-24T14:00:53.201Z,31.20
2022-08-24T14:03:33.122Z,30.90
2022-08-24T14:06:10.153Z,30.90
2022-08-24T14:08:50.093Z,30.90
2022-08-24T14:11:34.353Z,31.20
2022-08-24T14:14:09.369Z,31.30
2022-08-24T14:17:19.659Z,31.40
2022-08-24T14:20:00.189Z,31.40
2022-08-24T14:22:35.312Z,31.30
2022-08-24T14:25:17.454Z,31.10
2022-08-24T14:27:47.658Z,31.30
2022-08-24T14:30:43.019Z,31.30
2022-08-24T14:33:22.312Z,31.50
2022-08-24T14:36:16.919Z,31.40
2022-08-24T14:39:09.757Z,31.30
2022-08-24T14:41:53.760Z,31.30
2022-08-24T14:44:58.270Z,31.40
2022-08-24T14:47:38.798Z,31.40
2022-08-24T14:50:15.711Z,31.40
2022-08-24T14:53:02.958Z,31.50
2022-08-24T14:55:42.580Z,31.50
2022-08-24T14:58:28.974Z,31.50
2022-08-24T15:01:26.385Z,31.60
2022-08-24T15:04:12.189Z,31.50
2022-08-24T15:06:48.358Z,31.50
2022-08-24T15:09:25.103Z,31.40
2022-08-24T15:11:57.834Z,31.40
2022-08-24T15:14:37.521Z,31.60
2022-08-24T15:17:10.695Z,31.50
2022-08-24T15:19:50.804Z,31.50
2022-08-24T15:22:28.201Z,31.40
2022-08-24T15:25:03.696Z,31.50
2022-08-24T15:27:44.097Z,31.50
2022-08-24T15:30:22.235Z,31.40
2022-08-24T15:32:54.068Z,31.40
2022-08-24T15:35:28.693Z,31.40
2022-08-24T15:37:59.092Z,31.40
2022-08-24T15:40:30.557Z,31.40
2022-08-24T15:43:04.083Z,31.40
2022-08-24T15:45:34.182Z,31.40
2022-08-24T15:48:05.314Z,31.30
2022-08-24T15:50:41.051Z,31.30
2022-08-24T15:53:29.287Z,31.20
2022-08-24T15:55:58.944Z,31.40
2022-08-24T15:58:35.556Z,31.30
2022-08-24T16:01:40.456Z,31.20
2022-08-24T16:04:11.245Z,31.10
2022-08-24T16:06:42.865Z,31.10
2022-08-24T16:09:32.348Z,31.00
2022-08-24T16:12:04.792Z,31.00
2022-08-24T16:14:35.570Z,31.10
2022-08-24T16:17:30.408Z,31.00
2022-08-24T16:20:01.693Z,31.00
2022-08-24T16:22:34.006Z,30.90
2022-08-24T16:25:25.507Z,30.80
2022-08-24T16:27:58.174Z,30.80
2022-08-24T16:30:40.280Z,30.70
2022-08-24T16:33:09.773Z,30.70
2022-08-24T16:35:38.860Z,30.60
2022-08-24T16:38:07.271Z,30.50
2022-08-24T16:40:37.759Z,30.50
2022-08-24T16:43:06.170Z,30.50
2022-08-24T16:45:36.199Z,30.50
2022-08-24T16:48:05.375Z,30.30
2022-08-24T16:50:36.097Z,30.30
2022-08-24T16:53:04.470Z,30.20
2022-08-24T16:55:34.097Z,30.20
2022-08-24T16:58:04.016Z,30.10
2022-08-24T17:00:32.559Z,30.10
2022-08-24T17:03:00.910Z,30.00
2022-08-24T17:05:29.761Z,30.10
2022-08-24T17:07:59.878Z,30.10
2022-08-24T17:10:28.482Z,30.00
2022-08-24T17:12:56.847Z,29.90
2022-08-24T17:15:28.060Z,29.80
2022-08-24T17:18:01.507Z,29.80
2022-08-24T17:20:29.982Z,29.80
2022-08-24T17:22:58.854Z,29.70
2022-08-24T17:25:29.571Z,29.70
2022-08-24T17:27:58.778Z,29.70
2022-08-24T17:30:31.021Z,29.60
2022-08-24T17:33:01.169Z,29.60
2022-08-24T17:35:29.689Z,29.60
2022-08-24T17:37:59.999Z,29.50
2022-08-24T17:40:31.994Z,29.50
2022-08-24T17:43:00.415Z,29.50
2022-08-24T17:45:30.464Z,29.40
2022-08-24T17:47:59.470Z,29.30
2022-08-24T17:50:28.631Z,29.30
2022-08-24T17:53:00.246Z,29.40
2022-08-24T17:55:29.284Z,29.40
2022-08-24T17:57:58.183Z,29.30
2022-08-24T18:00:27.791Z,29.20
2022-08-24T18:02:57.470Z,29.20
2022-08-24T18:05:25.795Z,29.20
2022-08-24T18:07:56.721Z,29.20
2022-08-24T18:10:28.172Z,29.20
2022-08-24T18:12:58.024Z,29.10
2022-08-24T18:15:34.680Z,29.00
2022-08-24T18:18:09.433Z,29.10
2022-08-24T18:20:41.639Z,29.00
2022-08-24T18:23:11.797Z,28.90
2022-08-24T18:25:45.035Z,28.90
2022-08-24T18:28:15.213Z,28.90
2022-08-24T18:30:44.142Z,29.00
2022-08-24T18:33:14.445Z,28.90
2022-08-24T18:35:42.975Z,28.80
2022-08-24T18:38:11.364Z,28.80
2022-08-24T18:40:40.843Z,28.80
2022-08-24T18:43:23.535Z,28.80
2022-08-24T18:45:52.987Z,28.80
2022-08-24T18:48:23.106Z,28.70
2022-08-24T18:50:52.281Z,28.80
2022-08-24T18:53:21.036Z,28.70
2022-08-24T18:55:49.515Z,28.70
2022-08-24T18:58:18.081Z,28.70
2022-08-24T19:00:47.214Z,28.70
2022-08-24T19:03:19.734Z,28.60
2022-08-24T19:05:50.060Z,28.70
2022-08-24T19:08:18.660Z,28.70
2022-08-24T19:10:47.058Z,28.70
2022-08-24T19:13:18.457Z,28.60
2022-08-24T19:15:48.087Z,28.60
2022-08-24T19:18:17.631Z,28.60
2022-08-24T19:20:53.375Z,28.60
2022-08-24T19:23:24.373Z,28.60
2022-08-24T19:25:54.575Z,28.50
2022-08-24T19:28:23.388Z,28.30
2022-08-24T19:30:54.519Z,28.40
2022-08-24T19:33:26.147Z,28.40
2022-08-24T19:35:56.477Z,28.30
2022-08-24T19:38:26.161Z,28.40
2022-08-24T19:40:57.118Z,28.50
2022-08-24T19:43:27.173Z,28.40
2022-08-24T19:46:13.788Z,28.40
2022-08-24T19:48:42.093Z,28.30
2022-08-24T19:51:15.377Z,28.30
2022-08-24T19:53:44.010Z,28.30
2022-08-24T19:56:13.576Z,28.30
2022-08-24T19:58:46.891Z,28.30
2022-08-24T20:01:21.277Z,28.20
2022-08-24T20:03:49.791Z,28.10
2022-08-24T20:06:22.223Z,28.20
2022-08-24T20:08:51.134Z,28.10
2022-08-24T20:11:20.475Z,27.80
2022-08-24T20:13:53.824Z,27.70
2022-08-24T20:16:23.574Z,27.60
2022-08-24T20:18:52.284Z,27.70
2022-08-24T20:21:26.154Z,27.60
2022-08-24T20:23:58.061Z,27.60
2022-08-24T20:26:26.863Z,27.50
2022-08-24T20:28:59.004Z,27.60
2022-08-24T20:31:29.030Z,27.50
2022-08-24T20:33:58.334Z,27.50
2022-08-24T20:36:30.440Z,27.30
2022-08-24T20:39:01.137Z,27.20
2022-08-24T20:41:29.788Z,27.10
2022-08-24T20:43:58.943Z,27.10
2022-08-24T20:46:29.248Z,27.20
2022-08-24T20:48:58.751Z,27.50
2022-08-24T20:51:28.551Z,27.60
2022-08-24T20:53:57.183Z,27.30
2022-08-24T20:56:31.634Z,27.10
2022-08-24T20:59:01.715Z,27.30
2022-08-24T21:01:30.264Z,27.10
2022-08-24T21:04:04.236Z,27.10
2022-08-24T21:06:35.612Z,27.10
2022-08-24T21:09:05.417Z,27.00
2022-08-24T21:11:33.802Z,27.10
2022-08-24T21:14:05.604Z,27.20
2022-08-24T21:16:35.069Z,27.10
2022-08-24T21:19:03.599Z,27.10
2022-08-24T21:21:32.441Z,27.20
2022-08-24T21:24:02.770Z,27.10
2022-08-24T21:26:34.741Z,27.30
2022-08-24T21:29:05.353Z,27.10
2022-08-24T21:31:34.195Z,26.90
2022-08-24T21:34:20.346Z,27.10
2022-08-24T21:36:51.433Z,27.00
2022-08-24T21:39:23.667Z,26.70
2022-08-24T21:41:52.277Z,26.40
2022-08-24T21:44:21.595Z,25.90
2022-08-24T21:46:51.926Z,25.70
2022-08-24T21:49:21.342Z,25.50
2022-08-24T21:51:50.111Z,25.40
2022-08-24T21:54:18.404Z,25.60
2022-08-24T21:56:48.398Z,25.70
2022-08-24T21:59:17.208Z,25.80
2022-08-24T22:01:45.692Z,26.00
2022-08-24T22:04:14.243Z,26.00
2022-08-24T22:06:42.712Z,26.00
2022-08-24T22:09:11.384Z,26.20
2022-08-24T22:11:39.843Z,26.20
2022-08-24T22:14:09.832Z,26.30
2022-08-24T22:16:38.864Z,26.50
2022-08-24T22:19:07.429Z,26.60
2022-08-24T22:21:36.885Z,26.50
2022-08-24T22:24:05.753Z,26.20
2022-08-24T22:26:34.756Z,26.10
2022-08-24T22:29:05.149Z,26.20
2022-08-24T22:31:37.806Z,26.30
2022-08-24T22:34:09.333Z,26.30
2022-08-24T22:36:37.800Z,26.40
2022-08-24T22:39:06.907Z,26.40
2022-08-24T22:41:35.423Z,26.40
2022-08-24T22:44:22.149Z,26.30
2022-08-24T22:46:54.871Z,26.20
2022-08-24T22:49:26.491Z,26.30
2022-08-24T22:51:55.976Z,26.30
2022-08-24T22:54:25.541Z,26.40
2022-08-24T22:56:55.842Z,26.50
2022-08-24T22:59:25.903Z,26.40
2022-08-24T23:01:57.604Z,26.30
2022-08-24T23:04:28.760Z,26.20
2022-08-24T23:06:57.207Z,26.20
2022-08-24T23:09:25.839Z,26.10
2022-08-24T23:11:54.506Z,26.10
2022-08-24T23:14:24.067Z,26.20
2022-08-24T23:16:52.962Z,26.10
2022-08-24T23:19:42.076Z,26.20
2022-08-24T23:22:12.592Z,26.30
2022-08-24T23:24:42.065Z,26.10
2022-08-24T23:27:12.191Z,26.10
2022-08-24T23:29:40.899Z,26.00
2022-08-24T23:32:11.787Z,26.00
2022-08-24T23:34:41.636Z,26.00
2022-08-24T23:37:10.212Z,26.00
2022-08-24T23:39:38.494Z,26.00
2022-08-24T23:42:07.191Z,26.00
2022-08-24T23:44:35.810Z,26.00
2022-08-24T23:47:04.247Z,25.90
2022-08-24T23:49:33.244Z,25.80
2022-08-24T23:52:03.447Z,25.90
2022-08-24T23:54:31.807Z,25.80
2022-08-24T23:57:00.694Z,25.70
2022-08-24T23:59:30.464Z,25.20
